createdAt,value
2018-01-01T00:02:27.840Z,5.70
2018-01-01T00:04:56.157Z,5.70
2018-01-01T00:07:24.618Z,5.70
2018-01-01T00:09:52.905Z,5.70
2018-01-01T00:12:21.227Z,5.70
2018-01-01T00:14:50.289Z,5.60
2018-01-01T00:17:19.486Z,5.60
2018-01-01T00:19:47.824Z,5.60
2018-01-01T00:22:16.122Z,5.60
2018-01-01T00:24:44.394Z,5.60
2018-01-01T00:27:12.678Z,5.70
2018-01-01T00:29:40.968Z,5.70
2018-01-01T00:32:09.311Z,5.70
2018-01-01T00:34:38.373Z,5.80
2018-01-01T00:37:06.683Z,5.80
2018-01-01T00:39:35.738Z,5.90
2018-01-01T00:42:04.018Z,5.80
2018-01-01T00:44:32.479Z,5.90
2018-01-01T00:47:00.811Z,5.90
2018-01-01T00:49:29.156Z,6.00
2018-01-01T00:51:58.211Z,6.00
2018-01-01T00:54:26.506Z,6.00
2018-01-01T00:56:54.834Z,6.00
2018-01-01T00:59:24.614Z,6.00
2018-01-01T01:01:52.935Z,6.00
2018-01-01T01:04:21.230Z,6.00
2018-01-01T01:06:49.525Z,5.90
2018-01-01T01:09:17.853Z,5.90
2018-01-01T01:11:46.135Z,5.90
2018-01-01T01:14:14.434Z,5.80
2018-01-01T01:16:42.724Z,5.50
2018-01-01T01:19:11.023Z,5.30
2018-01-01T01:21:40.102Z,5.00
2018-01-01T01:24:09.159Z,4.80
2018-01-01T01:26:37.468Z,4.70
2018-01-01T01:29:05.748Z,4.60
2018-01-01T01:31:34.089Z,4.40
2018-01-01T01:34:02.375Z,4.30
2018-01-01T01:36:31.466Z,4.10
2018-01-01T01:39:00.541Z,4.00
2018-01-01T01:41:28.850Z,4.00
2018-01-01T01:43:57.505Z,4.00
2018-01-01T01:46:25.819Z,3.90
2018-01-01T01:48:54.098Z,3.90
2018-01-01T01:51:22.408Z,3.80
2018-01-01T01:53:50.685Z,3.90
2018-01-01T01:56:18.969Z,3.80
2018-01-01T01:58:47.281Z,3.70
2018-01-01T02:01:15.579Z,3.70
2018-01-01T02:03:43.882Z,3.60
2018-01-01T02:06:12.934Z,3.50
2018-01-01T02:08:41.215Z,3.50
2018-01-01T02:11:09.528Z,3.60
2018-01-01T02:13:37.815Z,3.60
2018-01-01T02:16:06.122Z,3.70
2018-01-01T02:18:34.414Z,3.70
2018-01-01T02:21:02.714Z,3.70
2018-01-01T02:23:31.100Z,3.80
2018-01-01T02:25:59.391Z,3.80
2018-01-01T02:28:27.728Z,3.80
2018-01-01T02:30:56.025Z,3.90
2018-01-01T02:33:24.316Z,3.90
2018-01-01T02:35:52.598Z,4.00
2018-01-01T02:38:20.887Z,4.00
2018-01-01T02:40:49.204Z,4.00
2018-01-01T02:43:17.488Z,4.10
2018-01-01T02:45:45.774Z,4.00
2018-01-01T02:48:14.069Z,4.00
2018-01-01T02:50:42.344Z,4.00
2018-01-01T02:53:10.698Z,4.00
2018-01-01T02:55:38.987Z,4.00
2018-01-01T02:58:07.290Z,3.90
2018-01-01T03:00:36.364Z,3.90
2018-01-01T03:03:04.727Z,3.90
2018-01-01T03:05:33.055Z,3.90
2018-01-01T03:08:01.362Z,4.00
2018-01-01T03:10:29.677Z,4.00
2018-01-01T03:12:57.958Z,4.00
2018-01-01T03:15:27.011Z,4.00
2018-01-01T03:17:55.344Z,4.00
2018-01-01T03:20:23.623Z,4.00
2018-01-01T03:22:51.912Z,4.00
2018-01-01T03:25:20.222Z,4.00
2018-01-01T03:27:48.524Z,4.00
2018-01-01T03:30:16.872Z,3.90
2018-01-01T03:32:45.162Z,3.90
2018-01-01T03:35:13.442Z,3.90
2018-01-01T03:37:41.718Z,3.90
2018-01-01T03:40:10.010Z,3.90
2018-01-01T03:42:38.327Z,3.90
2018-01-01T03:45:07.391Z,3.80
2018-01-01T03:47:35.703Z,3.80
2018-01-01T03:50:04.001Z,3.80
2018-01-01T03:52:32.323Z,3.90
2018-01-01T03:55:00.648Z,3.90
2018-01-01T03:57:28.936Z,3.80
2018-01-01T03:59:57.223Z,3.80
2018-01-01T04:02:25.510Z,3.80
2018-01-01T04:04:53.802Z,3.80
2018-01-01T04:07:22.132Z,3.80
2018-01-01T04:09:50.420Z,3.80
2018-01-01T04:12:18.727Z,3.70
2018-01-01T04:14:47.022Z,3.70
2018-01-01T04:17:15.443Z,3.70
2018-01-01T04:19:43.758Z,3.60
2018-01-01T04:22:12.038Z,3.60
2018-01-01T04:24:40.346Z,3.70
2018-01-01T04:27:08.655Z,3.70
2018-01-01T04:29:36.979Z,3.80
2018-01-01T04:32:05.279Z,3.80
2018-01-01T04:34:33.558Z,3.80
2018-01-01T04:37:02.662Z,3.90
2018-01-01T04:39:30.981Z,3.90
2018-01-01T04:41:59.308Z,3.80
2018-01-01T04:44:27.591Z,3.90
2018-01-01T04:46:55.877Z,3.80
2018-01-01T04:49:24.725Z,3.80
2018-01-01T04:51:52.998Z,3.80
2018-01-01T04:54:21.314Z,3.80
2018-01-01T04:56:50.368Z,3.90
2018-01-01T04:59:18.662Z,3.90
2018-01-01T05:01:46.942Z,3.90
2018-01-01T05:04:15.238Z,3.90
2018-01-01T05:06:43.648Z,3.90
2018-01-01T05:09:11.935Z,3.70
2018-01-01T05:11:40.223Z,3.60
2018-01-01T05:14:08.532Z,3.50
2018-01-01T05:16:36.834Z,3.40
2018-01-01T05:19:05.939Z,3.30
2018-01-01T05:21:35.005Z,3.30
2018-01-01T05:24:03.311Z,3.30
2018-01-01T05:26:31.639Z,3.30
2018-01-01T05:29:00.679Z,3.30
2018-01-01T05:31:29.009Z,3.30
2018-01-01T05:33:57.295Z,3.40
2018-01-01T05:36:25.586Z,3.30
2018-01-01T05:38:53.875Z,3.30
2018-01-01T05:41:22.165Z,3.40
2018-01-01T05:43:50.574Z,3.30
2018-01-01T05:46:19.644Z,3.20
2018-01-01T05:48:47.940Z,3.20
2018-01-01T05:51:16.226Z,3.20
2018-01-01T05:53:44.506Z,3.20
2018-01-01T05:56:12.823Z,3.20
2018-01-01T05:58:41.161Z,3.20
2018-01-01T06:01:09.466Z,3.10
2018-01-01T06:03:37.755Z,3.10
2018-01-01T06:06:06.050Z,3.10
2018-01-01T06:08:34.362Z,3.20
2018-01-01T06:11:02.682Z,3.10
2018-01-01T06:13:31.083Z,3.00
2018-01-01T06:15:59.406Z,3.00
2018-01-01T06:18:27.690Z,3.00
2018-01-01T06:20:56.016Z,2.90
2018-01-01T06:23:24.328Z,3.00
2018-01-01T06:25:52.612Z,2.90
2018-01-01T06:28:20.909Z,2.90
2018-01-01T06:30:49.187Z,2.90
2018-01-01T06:33:17.477Z,2.90
2018-01-01T06:35:45.903Z,2.90
2018-01-01T06:38:14.942Z,2.90
2018-01-01T06:40:43.219Z,2.90
2018-01-01T06:43:11.559Z,2.90
2018-01-01T06:45:39.838Z,2.90
2018-01-01T06:48:08.166Z,2.90
2018-01-01T06:50:37.303Z,2.90
2018-01-01T06:53:05.623Z,2.90
2018-01-01T06:55:33.933Z,3.00
2018-01-01T06:58:02.276Z,2.90
2018-01-01T07:00:30.636Z,3.00
2018-01-01T07:02:58.941Z,2.90
2018-01-01T07:05:27.237Z,2.90
2018-01-01T07:07:55.519Z,2.70
2018-01-01T07:10:23.932Z,2.60
2018-01-01T07:12:52.210Z,2.50
2018-01-01T07:15:20.501Z,2.50
2018-01-01T07:17:48.794Z,2.60
2018-01-01T07:20:17.078Z,2.50
2018-01-01T07:22:45.397Z,2.50
2018-01-01T07:25:13.944Z,2.50
2018-01-01T07:27:42.214Z,2.50
2018-01-01T07:30:10.515Z,2.50
2018-01-01T07:32:38.855Z,2.50
2018-01-01T07:35:07.166Z,2.60
2018-01-01T07:37:35.463Z,2.60
2018-01-01T07:40:03.750Z,2.70
2018-01-01T07:42:32.184Z,2.70
2018-01-01T07:45:00.536Z,2.60
2018-01-01T07:47:28.856Z,2.60
2018-01-01T07:49:57.183Z,2.60
2018-01-01T07:52:25.466Z,2.60
2018-01-01T07:54:53.780Z,2.50
2018-01-01T07:57:22.094Z,2.40
2018-01-01T07:59:50.403Z,2.40
2018-01-01T08:02:19.532Z,2.30
2018-01-01T08:04:47.922Z,2.30
2018-01-01T08:07:16.287Z,2.30
2018-01-01T08:09:44.671Z,2.30
2018-01-01T08:12:13.032Z,2.30
2018-01-01T08:14:41.385Z,2.30
2018-01-01T08:17:10.512Z,2.40
2018-01-01T08:19:38.887Z,2.40
2018-01-01T08:22:07.250Z,2.40
2018-01-01T08:24:35.553Z,2.40
2018-01-01T08:27:04.665Z,2.50
2018-01-01T08:29:33.746Z,2.60
2018-01-01T08:32:02.060Z,2.60
2018-01-01T08:34:31.188Z,2.60
2018-01-01T08:36:59.586Z,2.60
2018-01-01T08:39:27.913Z,2.70
2018-01-01T08:41:56.226Z,2.70
2018-01-01T08:44:24.507Z,2.70
2018-01-01T08:46:52.797Z,2.80
2018-01-01T08:49:21.104Z,2.80
2018-01-01T08:51:49.388Z,2.80
2018-01-01T08:54:17.690Z,2.80
2018-01-01T08:56:45.982Z,2.80
2018-01-01T08:59:15.110Z,2.80
2018-01-01T09:01:43.524Z,2.80
2018-01-01T09:04:11.936Z,2.90
2018-01-01T09:06:40.338Z,2.80
2018-01-01T09:09:08.625Z,2.80
2018-01-01T09:11:36.907Z,2.80
2018-01-01T09:14:05.249Z,2.80
2018-01-01T09:16:34.438Z,2.80
2018-01-01T09:19:02.847Z,2.80
2018-01-01T09:21:32.001Z,3.00
2018-01-01T09:24:00.388Z,3.00
2018-01-01T09:26:28.719Z,3.00
2018-01-01T09:28:56.999Z,3.10
2018-01-01T09:31:26.061Z,3.40
2018-01-01T09:33:54.351Z,3.40
2018-01-01T09:36:22.659Z,3.40
2018-01-01T09:38:50.998Z,3.30
2018-01-01T09:41:20.050Z,3.30
2018-01-01T09:43:48.341Z,3.30
2018-01-01T09:46:16.622Z,3.30
2018-01-01T09:48:44.919Z,3.30
2018-01-01T09:51:13.339Z,3.50
2018-01-01T09:53:41.634Z,3.50
2018-01-01T09:56:10.707Z,3.60
2018-01-01T09:58:39.015Z,3.60
2018-01-01T10:01:07.314Z,3.50
2018-01-01T10:03:35.665Z,3.40
2018-01-01T10:06:03.992Z,3.30
2018-01-01T10:08:32.290Z,3.20
2018-01-01T10:11:00.633Z,3.10
2018-01-01T10:13:28.911Z,2.90
2018-01-01T10:15:58.014Z,2.50
2018-01-01T10:18:27.072Z,2.30
2018-01-01T10:20:55.439Z,2.30
2018-01-01T10:23:23.726Z,2.40
2018-01-01T10:25:52.005Z,2.40
2018-01-01T10:28:21.198Z,2.50
2018-01-01T10:30:50.266Z,2.40
2018-01-01T10:33:18.566Z,2.40
2018-01-01T10:35:46.847Z,2.30
2018-01-01T10:38:15.214Z,2.20
2018-01-01T10:40:43.580Z,2.00
2018-01-01T10:43:12.650Z,2.10
2018-01-01T10:45:40.942Z,2.10
2018-01-01T10:48:10.023Z,2.30
2018-01-01T10:50:38.331Z,2.30
2018-01-01T10:53:06.787Z,2.40
2018-01-01T10:55:35.134Z,2.40
2018-01-01T10:58:03.504Z,2.50
2018-01-01T11:00:31.824Z,2.60
2018-01-01T11:03:00.944Z,2.70
2018-01-01T11:05:29.268Z,2.70
2018-01-01T11:07:57.546Z,2.80
2018-01-01T11:10:26.599Z,2.90
2018-01-01T11:12:54.919Z,2.90
2018-01-01T11:15:23.987Z,3.00
2018-01-01T11:17:52.316Z,3.00
2018-01-01T11:20:20.596Z,3.10
2018-01-01T11:22:48.874Z,3.00
2018-01-01T11:25:17.173Z,3.10
2018-01-01T11:27:45.449Z,3.00
2018-01-01T11:30:13.783Z,3.00
2018-01-01T11:32:42.870Z,3.10
2018-01-01T11:35:11.175Z,3.00
2018-01-01T11:37:40.240Z,3.00
2018-01-01T11:40:08.546Z,3.00
2018-01-01T11:42:36.930Z,3.00
2018-01-01T11:45:05.224Z,3.10
2018-01-01T11:47:33.545Z,3.10
2018-01-01T11:50:02.714Z,3.20
2018-01-01T11:52:31.025Z,3.10
2018-01-01T11:54:59.362Z,3.20
2018-01-01T11:57:27.651Z,3.30
2018-01-01T11:59:55.959Z,3.20
2018-01-01T12:02:24.238Z,3.20
2018-01-01T12:04:52.541Z,3.30
2018-01-01T12:07:21.680Z,3.40
2018-01-01T12:09:49.968Z,3.40
2018-01-01T12:12:19.656Z,3.50
2018-01-01T12:14:47.339Z,3.40
2018-01-01T12:17:15.676Z,3.40
2018-01-01T12:19:43.960Z,3.30
2018-01-01T12:22:13.016Z,3.20
2018-01-01T12:24:41.307Z,3.20
2018-01-01T12:27:09.663Z,3.20
2018-01-01T12:29:39.032Z,3.10
2018-01-01T12:32:07.388Z,3.10
2018-01-01T12:34:35.713Z,3.20
2018-01-01T12:37:04.027Z,3.20
2018-01-01T12:39:32.359Z,3.30
2018-01-01T12:42:00.683Z,3.30
2018-01-01T12:44:28.998Z,3.30
2018-01-01T12:46:57.551Z,3.40
2018-01-01T12:49:25.855Z,3.50
2018-01-01T12:51:54.154Z,3.50
2018-01-01T12:54:22.488Z,3.50
2018-01-01T12:56:51.554Z,3.50
2018-01-01T12:59:19.835Z,3.50
2018-01-01T13:01:48.155Z,3.50
2018-01-01T13:04:16.437Z,3.50
2018-01-01T13:06:44.758Z,3.50
2018-01-01T13:09:13.826Z,3.50
2018-01-01T13:11:42.102Z,3.40
2018-01-01T13:14:10.398Z,3.40
2018-01-01T13:16:38.733Z,3.40
2018-01-01T13:19:07.862Z,3.40
2018-01-01T13:21:37.068Z,3.40
2018-01-01T13:24:05.362Z,3.50
2018-01-01T13:26:33.688Z,3.50
2018-01-01T13:29:02.032Z,3.60
2018-01-01T13:31:31.130Z,3.70
2018-01-01T13:34:00.258Z,3.70
2018-01-01T13:36:28.552Z,3.70
2018-01-01T13:38:56.850Z,3.60
2018-01-01T13:41:25.147Z,3.60
2018-01-01T13:43:53.458Z,3.70
2018-01-01T13:46:21.761Z,3.70
2018-01-01T13:48:50.054Z,3.70
2018-01-01T13:51:18.351Z,3.80
2018-01-01T13:53:46.722Z,3.80
2018-01-01T13:56:15.089Z,3.90
2018-01-01T13:58:43.362Z,3.80
2018-01-01T14:01:11.725Z,3.80
2018-01-01T14:03:40.016Z,3.80
2018-01-01T14:06:09.073Z,3.70
2018-01-01T14:08:37.421Z,3.70
2018-01-01T14:11:05.729Z,3.70
2018-01-01T14:13:34.081Z,3.60
2018-01-01T14:16:02.388Z,3.50
2018-01-01T14:18:30.687Z,3.50
2018-01-01T14:20:59.866Z,3.30
2018-01-01T14:23:28.159Z,3.30
2018-01-01T14:25:56.493Z,3.40
2018-01-01T14:28:25.539Z,3.40
2018-01-01T14:30:53.876Z,3.40
2018-01-01T14:33:22.943Z,3.40
2018-01-01T14:35:52.010Z,3.50
2018-01-01T14:38:20.314Z,3.50
2018-01-01T14:40:48.594Z,3.50
2018-01-01T14:43:16.927Z,3.50
2018-01-01T14:45:45.234Z,3.50
2018-01-01T14:48:13.557Z,3.50
2018-01-01T14:50:41.851Z,3.40
2018-01-01T14:53:10.145Z,3.40
2018-01-01T14:55:38.465Z,3.50
2018-01-01T14:58:06.793Z,3.50
2018-01-01T15:00:35.144Z,3.50
2018-01-01T15:03:03.447Z,3.40
2018-01-01T15:05:31.822Z,3.30
2018-01-01T15:08:00.136Z,3.30
2018-01-01T15:10:28.456Z,3.30
2018-01-01T15:12:57.520Z,3.30
2018-01-01T15:15:25.827Z,3.20
2018-01-01T15:17:54.184Z,3.20
2018-01-01T15:20:22.490Z,3.20
2018-01-01T15:22:50.791Z,3.30
2018-01-01T15:25:19.365Z,3.30
2018-01-01T15:27:48.497Z,3.30
2018-01-01T15:30:16.922Z,3.30
2018-01-01T15:32:46.018Z,3.20
2018-01-01T15:35:14.310Z,3.20
2018-01-01T15:37:42.596Z,3.20
2018-01-01T15:40:10.882Z,3.20
2018-01-01T15:42:39.211Z,3.10
2018-01-01T15:45:07.523Z,3.10
2018-01-01T15:47:35.880Z,3.10
2018-01-01T15:50:04.942Z,3.00
2018-01-01T15:52:33.246Z,3.00
2018-01-01T15:55:01.589Z,3.00
2018-01-01T15:57:29.938Z,3.00
2018-01-01T15:59:58.278Z,3.00
2018-01-01T16:02:26.567Z,3.00
2018-01-01T16:04:54.862Z,3.00
2018-01-01T16:07:23.143Z,3.10
2018-01-01T16:09:51.444Z,3.10
2018-01-01T16:12:19.773Z,3.10
2018-01-01T16:14:48.067Z,3.00
2018-01-01T16:17:16.380Z,3.10
2018-01-01T16:19:44.699Z,3.10
2018-01-01T16:22:13.011Z,3.10
2018-01-01T16:24:41.303Z,3.10
2018-01-01T16:27:09.627Z,3.10
2018-01-01T16:29:38.724Z,2.90
2018-01-01T16:32:07.026Z,2.90
2018-01-01T16:34:35.351Z,2.90
2018-01-01T16:37:03.668Z,2.90
2018-01-01T16:39:31.955Z,2.80
2018-01-01T16:42:00.259Z,2.80
2018-01-01T16:44:28.549Z,2.70
2018-01-01T16:46:56.882Z,2.70
2018-01-01T16:49:25.939Z,2.50
2018-01-01T16:51:54.219Z,2.50
2018-01-01T16:54:22.511Z,2.50
2018-01-01T16:56:50.798Z,2.40
2018-01-01T16:59:19.127Z,2.50
2018-01-01T17:01:47.430Z,2.40
2018-01-01T17:04:16.498Z,2.30
2018-01-01T17:06:44.788Z,2.30
2018-01-01T17:09:13.123Z,2.20
2018-01-01T17:11:42.175Z,2.20
2018-01-01T17:14:10.489Z,2.20
2018-01-01T17:16:38.762Z,2.10
2018-01-01T17:19:07.088Z,2.10
2018-01-01T17:21:35.513Z,2.10
2018-01-01T17:24:03.819Z,2.00
2018-01-01T17:26:32.143Z,2.00
2018-01-01T17:29:00.500Z,1.90
2018-01-01T17:31:28.805Z,2.00
2018-01-01T17:33:57.123Z,1.90
2018-01-01T17:36:25.407Z,1.90
2018-01-01T17:38:53.735Z,1.90
2018-01-01T17:41:22.023Z,1.90
2018-01-01T17:43:51.082Z,1.80
2018-01-01T17:46:19.394Z,1.90
2018-01-01T17:48:47.683Z,1.90
2018-01-01T17:51:15.966Z,1.80
2018-01-01T17:53:44.303Z,1.80
2018-01-01T17:56:12.603Z,1.80
2018-01-01T17:58:40.898Z,1.90
2018-01-01T18:01:09.237Z,1.90
2018-01-01T18:03:37.533Z,1.90
2018-01-01T18:06:05.865Z,1.90
2018-01-01T18:08:34.147Z,1.80
2018-01-01T18:11:02.445Z,1.90
2018-01-01T18:13:30.796Z,1.90
2018-01-01T18:15:59.090Z,1.90
2018-01-01T18:18:28.148Z,1.90
2018-01-01T18:20:56.480Z,1.90
2018-01-01T18:23:24.759Z,1.90
2018-01-01T18:25:53.083Z,1.80
2018-01-01T18:28:21.390Z,1.80
2018-01-01T18:30:49.678Z,1.80
2018-01-01T18:33:17.956Z,1.70
2018-01-01T18:35:46.274Z,1.70
2018-01-01T18:38:14.596Z,1.70
2018-01-01T18:40:42.883Z,1.60
2018-01-01T18:43:11.194Z,1.70
2018-01-01T18:45:39.567Z,1.60
2018-01-01T18:48:08.842Z,1.60
2018-01-01T18:50:37.219Z,1.60
2018-01-01T18:53:05.542Z,1.50
2018-01-01T18:55:33.844Z,1.50
2018-01-01T18:58:02.151Z,1.40
2018-01-01T19:00:30.486Z,1.40
2018-01-01T19:02:58.795Z,1.30
2018-01-01T19:05:27.080Z,1.30
2018-01-01T19:07:55.359Z,1.30
2018-01-01T19:10:23.654Z,1.30
2018-01-01T19:12:51.978Z,1.20
2018-01-01T19:15:20.299Z,1.20
2018-01-01T19:17:49.402Z,1.10
2018-01-01T19:20:18.469Z,1.10
2018-01-01T19:22:46.817Z,1.00
2018-01-01T19:25:15.908Z,1.00
2018-01-01T19:27:44.291Z,1.00
2018-01-01T19:30:13.403Z,1.10
2018-01-01T19:32:42.460Z,1.00
2018-01-01T19:35:10.759Z,1.00
2018-01-01T19:37:39.063Z,1.00
2018-01-01T19:40:07.343Z,1.00
2018-01-01T19:42:35.684Z,0.90
2018-01-01T19:45:04.762Z,0.90
2018-01-01T19:47:33.083Z,0.90
2018-01-01T19:50:01.379Z,0.90
2018-01-01T19:52:30.808Z,0.90
2018-01-01T19:54:59.464Z,0.80
2018-01-01T19:57:27.856Z,0.90
2018-01-01T19:59:56.142Z,0.80
2018-01-01T20:02:24.426Z,0.80
2018-01-01T20:04:52.741Z,0.80
2018-01-01T20:07:21.844Z,0.70
2018-01-01T20:09:50.125Z,0.70
2018-01-01T20:12:18.418Z,0.70
2018-01-01T20:14:46.709Z,0.70
2018-01-01T20:17:15.787Z,0.70
2018-01-01T20:19:44.106Z,0.70
2018-01-01T20:22:12.405Z,0.70
2018-01-01T20:24:40.934Z,0.70
2018-01-01T20:27:09.217Z,0.70
2018-01-01T20:29:37.498Z,0.70
2018-01-01T20:32:06.619Z,0.70
2018-01-01T20:34:34.921Z,0.70
2018-01-01T20:37:03.234Z,0.70
2018-01-01T20:39:31.515Z,0.70
2018-01-01T20:41:59.817Z,0.80
2018-01-01T20:44:28.143Z,0.80
2018-01-01T20:46:57.192Z,0.80
2018-01-01T20:49:25.514Z,0.80
2018-01-01T20:51:53.806Z,0.80
2018-01-01T20:54:22.915Z,0.80
2018-01-01T20:56:51.235Z,0.70
2018-01-01T20:59:20.310Z,0.80
2018-01-01T21:01:48.610Z,0.80
2018-01-01T21:04:17.939Z,0.80
2018-01-01T21:06:46.995Z,0.80
2018-01-01T21:09:15.381Z,0.80
2018-01-01T21:11:43.687Z,0.90
2018-01-01T21:14:11.989Z,0.90
2018-01-01T21:16:40.284Z,1.00
2018-01-01T21:19:08.657Z,1.00
2018-01-01T21:21:37.078Z,1.10
2018-01-01T21:24:05.475Z,1.10
2018-01-01T21:26:33.906Z,1.10
2018-01-01T21:29:02.235Z,1.20
2018-01-01T21:31:30.535Z,1.20
2018-01-01T21:33:58.887Z,1.20
2018-01-01T21:36:27.222Z,1.10
2018-01-01T21:38:55.872Z,1.10
2018-01-01T21:41:24.231Z,1.10
2018-01-01T21:43:52.668Z,1.20
2018-01-01T21:46:21.011Z,1.20
2018-01-01T21:48:49.312Z,1.20
2018-01-01T21:51:18.392Z,1.20
2018-01-01T21:53:46.740Z,1.20
2018-01-01T21:56:15.029Z,1.20
2018-01-01T21:58:43.379Z,1.10
2018-01-01T22:01:11.801Z,1.10
2018-01-01T22:03:40.965Z,1.10
2018-01-01T22:06:09.380Z,1.10
2018-01-01T22:08:38.674Z,1.10
2018-01-01T22:11:06.954Z,1.00
2018-01-01T22:13:35.244Z,1.10
2018-01-01T22:16:03.555Z,1.00
2018-01-01T22:18:31.877Z,1.00
2018-01-01T22:21:00.313Z,0.90
2018-01-01T22:23:28.599Z,0.90
2018-01-01T22:25:56.923Z,0.90
2018-01-01T22:28:25.258Z,0.80
2018-01-01T22:30:53.563Z,0.80
2018-01-01T22:33:21.912Z,0.80
2018-01-01T22:35:50.156Z,0.70
2018-01-01T22:38:18.449Z,0.70
2018-01-01T22:40:46.729Z,0.60
2018-01-01T22:43:15.041Z,0.60
2018-01-01T22:45:43.316Z,0.70
2018-01-01T22:48:11.606Z,0.70
2018-01-01T22:50:39.930Z,0.70
2018-01-01T22:53:09.063Z,0.70
2018-01-01T22:55:37.435Z,0.70
2018-01-01T22:58:06.571Z,0.70
2018-01-01T23:00:34.923Z,0.70
2018-01-01T23:03:03.304Z,0.60
2018-01-01T23:05:31.731Z,0.60
2018-01-01T23:08:00.874Z,0.60
2018-01-01T23:10:29.263Z,0.60
2018-01-01T23:12:57.651Z,0.70
2018-01-01T23:15:26.034Z,0.70
2018-01-01T23:17:54.395Z,0.70
2018-01-01T23:20:23.512Z,0.60
2018-01-01T23:22:52.636Z,0.60
2018-01-01T23:25:21.015Z,0.60
2018-01-01T23:27:50.136Z,0.60
2018-01-01T23:30:18.498Z,0.60
2018-01-01T23:32:46.866Z,0.60
2018-01-01T23:35:15.229Z,0.50
2018-01-01T23:37:43.561Z,0.60
2018-01-01T23:40:11.944Z,0.50
2018-01-01T23:42:40.217Z,0.50
2018-01-01T23:45:08.512Z,0.50
2018-01-01T23:47:36.795Z,0.50
2018-01-01T23:50:05.141Z,0.50
2018-01-01T23:52:34.194Z,0.50
2018-01-01T23:55:02.497Z,0.50
2018-01-01T23:57:30.840Z,0.50
2018-01-01T23:59:59.141Z,0.50
